Time;durP1;ratioP1;P1;durP2;ratioP2;P2;SDS_P1;SDS_P2;PMS_P1;PMS_P2;Temp;Humidity;BMP_temperature;BMP_pressure;BME280_temperature;BME280_humidity;BME280_pressure;Samples;Min_cycle;Max_cycle;Signal;HPM_P1;HPM_P2
2023/11/02 00:02:23;;;;;;;0.73;0.73;;;;;;;;;;5053138;28;20094;-86
2023/11/02 00:04:50;;;;;;;0.70;0.70;;;;;;;;;;5036043;28;20037;-85
2023/11/02 00:07:19;;;;;;;1.48;1.23;;;;;;;;;;5036308;28;20056;-86
2023/11/02 00:09:46;;;;;;;1.15;0.98;;;;;;;;;;5035888;28;20032;-86
2023/11/02 00:12:15;;;;;;;2.00;1.50;;;;;;;;;;5035459;28;20163;-88
2023/11/02 00:14:42;;;;;;;1.15;0.82;;;;;;;;;;5044674;28;20025;-86
2023/11/02 00:17:38;;;;;;;1.00;0.90;;;;;;;;;;5052504;28;20028;-85
2023/11/02 00:20:24;;;;;;;1.17;1.05;;;;;;;;;;5033476;28;20021;-87
2023/11/02 00:22:53;;;;;;;0.68;0.68;;;;;;;;;;5030944;28;20025;-86
2023/11/02 00:25:58;;;;;;;2.03;1.23;;;;;;;;;;5032846;28;20033;-85
2023/11/02 00:28:31;;;;;;;1.38;1.08;;;;;;;;;;5032659;28;20021;-87
2023/11/02 00:31:05;;;;;;;1.25;1.10;;;;;;;;;;5035777;28;20028;-85
2023/11/02 00:33:38;;;;;;;1.23;0.90;;;;;;;;;;5050074;28;20051;-85
2023/11/02 00:36:05;;;;;;;0.65;0.60;;;;;;;;;;5035841;28;20025;-87
2023/11/02 00:38:34;;;;;;;0.80;0.70;;;;;;;;;;5029399;28;20064;-86
2023/11/02 00:41:12;;;;;;;0.95;0.85;;;;;;;;;;5016152;28;20546;-86
2023/11/02 00:43:41;;;;;;;1.50;0.73;;;;;;;;;;5015913;28;20036;-86
2023/11/02 00:46:16;;;;;;;0.88;0.85;;;;;;;;;;5016099;28;20613;-88
2023/11/02 00:48:44;;;;;;;0.60;0.60;;;;;;;;;;5016159;28;20033;-85
2023/11/02 00:51:16;;;;;;;2.08;1.20;;;;;;;;;;5016345;28;20382;-88
2023/11/02 00:53:45;;;;;;;;;;;;;;;;;;5016502;28;20064;-86
2023/11/02 00:56:24;;;;;;;1.27;1.00;;;;;;;;;;5048855;28;20449;-85
2023/11/02 00:58:57;;;;;;;0.85;0.73;;;;;;;;;;5030258;28;20029;-86
2023/11/02 01:02:07;;;;;;;;;;;;;;;;;;;;;
2023/11/02 01:05:05;;;;;;;;;;;;;;;;;;;;;
2023/11/02 01:07:40;;;;;;;1.15;1.00;;;;;;;;;;5037546;28;20018;-86
2023/11/02 01:10:10;;;;;;;1.10;0.80;;;;;;;;;;5020003;28;20026;-86
2023/11/02 01:12:56;;;;;;;0.70;0.68;;;;;;;;;;5033683;28;20063;-86
2023/11/02 01:19:21;;;;;;;;;;;;;;;;;;;;;
2023/11/02 01:21:57;;;;;;;2.28;1.33;;;;;;;;;;4938699;29;20469;-87
2023/11/02 01:24:43;;;;;;;0.98;0.95;;;;;;;;;;4940579;29;20074;-87
2023/11/02 01:28:01;;;;;;;1.00;0.90;;;;;;;;;;4938998;29;20023;-86
2023/11/02 01:30:24;;;;;;;0.80;0.68;;;;;;;;;;4937743;29;20028;-87
2023/11/02 01:33:11;;;;;;;0.80;0.80;;;;;;;;;;4944570;29;20126;-85
2023/11/02 01:36:02;;;;;;;0.70;0.70;;;;;;;;;;4946810;29;20508;-85
2023/11/02 01:38:32;;;;;;;1.02;0.82;;;;;;;;;;4937637;29;20103;-85
2023/11/02 01:41:27;;;;;;;0.88;0.68;;;;;;;;;;4937872;29;20091;-85
2023/11/02 01:47:27;;;;;;;;;;;;;;;;;;;;;
2023/11/02 01:50:04;;;;;;;0.85;0.70;;;;;;;;;;4937479;29;20039;-85
2023/11/02 01:52:31;;;;;;;0.88;0.75;;;;;;;;;;4937285;29;20123;-88
2023/11/02 01:55:25;;;;;;;0.90;0.80;;;;;;;;;;4944417;28;20125;-87
2023/11/02 01:58:06;;;;;;;1.00;0.80;;;;;;;;;;4990187;28;20036;-88
2023/11/02 02:00:49;;;;;;;0.50;0.50;;;;;;;;;;5018517;28;20033;-85
2023/11/02 02:03:39;;;;;;;1.17;0.93;;;;;;;;;;5018554;28;20025;-87
2023/11/02 02:06:09;;;;;;;0.80;0.70;;;;;;;;;;5032839;28;20029;-86
2023/11/02 02:08:51;;;;;;;;;;;;;;;;;;;;;
2023/11/02 02:12:05;;;;;;;0.70;0.70;;;;;;;;;;5036109;28;20022;-85
2023/11/02 02:15:26;;;;;;;0.90;0.70;;;;;;;;;;5033539;28;20029;-87
2023/11/02 02:18:30;;;;;;;0.65;0.65;;;;;;;;;;5035960;28;20037;-88
2023/11/02 02:21:31;;;;;;;1.13;0.80;;;;;;;;;;4958954;28;20030;-88
2023/11/02 02:24:08;;;;;;;0.73;0.70;;;;;;;;;;4966305;28;20030;-83
2023/11/02 02:26:48;;;;;;;1.13;1.00;;;;;;;;;;5016940;28;20041;-85
2023/11/02 02:29:50;;;;;;;3.15;1.05;;;;;;;;;;4991641;28;20047;-87
2023/11/02 02:32:53;;;;;;;0.85;0.80;;;;;;;;;;4975277;28;20041;-85
2023/11/02 02:35:56;;;;;;;0.70;0.70;;;;;;;;;;4960789;28;20065;-87
2023/11/02 02:38:35;;;;;;;0.65;0.65;;;;;;;;;;4959075;28;20054;-85
2023/11/02 02:41:21;;;;;;;1.10;1.00;;;;;;;;;;4958904;28;20027;-86
2023/11/02 02:43:57;;;;;;;0.80;0.80;;;;;;;;;;4958593;28;20042;-86
2023/11/02 02:46:24;;;;;;;1.10;0.90;;;;;;;;;;4958790;28;20034;-85
2023/11/02 02:49:05;;;;;;;1.10;1.00;;;;;;;;;;4942378;28;20023;-88
2023/11/02 02:52:01;;;;;;;;;;;;;;;;;;;;;
2023/11/02 02:57:40;;;;;;;1.48;0.98;;;;;;;;;;5010815;28;20129;-87
2023/11/02 03:00:17;;;;;;;0.98;0.98;;;;;;;;;;5017796;28;20402;-86
2023/11/02 03:03:43;;;;;;;0.90;0.80;;;;;;;;;;5032938;28;20520;-87
2023/11/02 03:06:29;;;;;;;;;;;;;;;;;;;;;
2023/11/02 03:10:00;;;;;;;;;;;;;;;;;;;;;
2023/11/02 03:12:34;;;;;;;;;;;;;;;;;;;;;
2023/11/02 03:18:26;;;;;;;;;;;;;;;;;;;;;
2023/11/02 03:30:54;;;;;;;0.88;0.73;;;;;;;;;;4844485;29;20571;-86
2023/11/02 03:33:49;;;;;;;2.20;1.08;;;;;;;;;;4805649;29;20039;-87
2023/11/02 03:36:49;;;;;;;1.05;0.82;;;;;;;;;;4819295;29;20055;-86
2023/11/02 03:39:46;;;;;;;1.08;0.85;;;;;;;;;;4802914;29;20070;-87
2023/11/02 03:42:28;;;;;;;1.10;0.90;;;;;;;;;;4823566;29;20064;-87
2023/11/02 03:45:18;;;;;;;1.10;0.80;;;;;;;;;;4823281;29;20049;-86
2023/11/02 03:51:17;;;;;;;1.10;0.98;;;;;;;;;;4787367;29;20031;-88
2023/11/02 03:54:24;;;;;;;0.90;0.80;;;;;;;;;;4787155;29;20073;-86
2023/11/02 03:57:31;;;;;;;0.90;0.70;;;;;;;;;;4766577;30;20043;-86
2023/11/02 04:00:20;;;;;;;1.45;0.90;;;;;;;;;;4765604;29;20100;-87
2023/11/02 04:03:08;;;;;;;0.90;0.80;;;;;;;;;;4794853;29;20059;-88
2023/11/02 04:05:59;;;;;;;1.10;0.80;;;;;;;;;;4859576;29;20546;-86
2023/11/02 04:08:58;;;;;;;1.15;0.85;;;;;;;;;;4859987;29;20499;-88
2023/11/02 04:11:57;;;;;;;1.00;0.80;;;;;;;;;;4915837;29;20520;-86
2023/11/02 04:14:45;;;;;;;1.15;1.05;;;;;;;;;;4897447;29;20115;-87
2023/11/02 04:20:51;;;;;;;;;;;;;;;;;;;;;
2023/11/02 04:27:19;;;;;;;;;;;;;;;;;;;;;
2023/11/02 04:30:14;;;;;;;;;;;;;;;;;;;;;
2023/11/02 04:33:14;;;;;;;1.58;0.88;;;;;;;;;;4973763;28;20022;-86
2023/11/02 04:39:19;;;;;;;0.52;0.52;;;;;;;;;;4902670;29;20029;-86
2023/11/02 04:45:23;;;;;;;;;;;;;;;;;;;;;
2023/11/02 04:48:27;;;;;;;0.77;0.73;;;;;;;;;;4857174;29;20130;-84
2023/11/02 04:54:50;;;;;;;0.98;0.80;;;;;;;;;;4772591;30;20032;-86
2023/11/02 04:57:33;;;;;;;1.02;0.90;;;;;;;;;;4793774;29;20495;-87
2023/11/02 05:00:18;;;;;;;;;;;;;;;;;;;;;
2023/11/02 05:03:06;;;;;;;0.90;0.70;;;;;;;;;;4807913;29;20035;-87
2023/11/02 05:06:48;;;;;;;;;;;;;;;;;;;;;
2023/11/02 05:09:13;;;;;;;;;;;;;;;;;;;;;
2023/11/02 05:11:56;;;;;;;0.98;0.88;;;;;;;;;;4789936;30;20039;-86
2023/11/02 05:14:41;;;;;;;0.98;0.70;;;;;;;;;;4790028;29;20063;-86
2023/11/02 05:17:21;;;;;;;0.93;0.80;;;;;;;;;;4807946;29;20066;-86
2023/11/02 05:20:11;;;;;;;1.20;0.90;;;;;;;;;;4808294;29;20114;-86
2023/11/02 05:23:00;;;;;;;0.95;0.80;;;;;;;;;;4841717;29;20034;-85
2023/11/02 05:28:43;;;;;;;0.70;0.70;;;;;;;;;;4842325;29;20388;-86
2023/11/02 05:31:51;;;;;;;0.60;0.60;;;;;;;;;;4834902;29;20062;-86
2023/11/02 05:37:38;;;;;;;1.05;0.75;;;;;;;;;;4879971;29;20415;-86
2023/11/02 05:40:19;;;;;;;1.08;0.85;;;;;;;;;;4881330;29;20056;-87
2023/11/02 05:43:34;;;;;;;;;;;;;;;;;;;;;
2023/11/02 06:07:45;;;;;;;0.73;0.70;;;;;;;;;;4889391;29;20021;-86
2023/11/02 06:10:14;;;;;;;0.88;0.70;;;;;;;;;;4865059;29;20261;-85
2023/11/02 06:12:59;;;;;;;1.83;1.23;;;;;;;;;;4849397;29;20037;-85
2023/11/02 06:15:26;;;;;;;1.10;0.90;;;;;;;;;;4864979;29;20033;-87
2023/11/02 06:18:38;;;;;;;0.90;0.80;;;;;;;;;;4864650;29;20072;-87
2023/11/02 06:20:41;;;;;;;1.45;0.93;;;;;;;;;;4873653;29;20496;-88
2023/11/02 06:23:10;;;;;;;1.00;0.80;;;;;;;;;;4892765;29;20049;-86
2023/11/02 06:25:37;;;;;;;1.10;0.80;;;;;;;;;;4876711;29;20390;-87
2023/11/02 06:28:06;;;;;;;1.25;1.15;;;;;;;;;;4937003;29;20028;-87
2023/11/02 06:30:35;;;;;;;1.35;0.90;;;;;;;;;;4991197;28;20042;-86
2023/11/02 06:33:05;;;;;;;1.50;1.08;;;;;;;;;;4991112;28;20117;-86
2023/11/02 06:35:35;;;;;;;0.90;0.85;;;;;;;;;;4996399;28;20054;-86
2023/11/02 06:38:02;;;;;;;1.02;0.88;;;;;;;;;;5019590;28;20039;-87
2023/11/02 06:41:01;;;;;;;;;;;;;;;;;;;;;
2023/11/02 06:43:20;;;;;;;0.60;0.60;;;;;;;;;;5010249;28;20021;-87
2023/11/02 06:45:49;;;;;;;1.48;0.98;;;;;;;;;;5042974;28;20009;-85
2023/11/02 06:48:18;;;;;;;0.88;0.85;;;;;;;;;;5042838;28;20073;-83
2023/11/02 06:50:46;;;;;;;1.10;0.80;;;;;;;;;;5043050;28;20021;-86
2023/11/02 06:53:13;;;;;;;1.73;1.23;;;;;;;;;;5033469;28;20022;-86
2023/11/02 06:55:42;;;;;;;0.70;0.70;;;;;;;;;;5019285;28;20029;-89
2023/11/02 06:58:17;;;;;;;0.85;0.77;;;;;;;;;;5037987;28;20394;-85
2023/11/02 07:00:44;;;;;;;0.70;0.70;;;;;;;;;;5037494;28;20532;-85
2023/11/02 07:03:11;;;;;;;0.82;0.70;;;;;;;;;;5019145;28;20457;-87
2023/11/02 07:05:40;;;;;;;0.73;0.70;;;;;;;;;;5020216;28;20021;-86
2023/11/02 07:08:07;;;;;;;0.90;0.70;;;;;;;;;;5020261;28;20112;-87
2023/11/02 07:10:33;;;;;;;0.50;0.50;;;;;;;;;;5020061;28;20498;-87
2023/11/02 07:12:59;;;;;;;1.05;0.73;;;;;;;;;;5020006;28;20036;-87
2023/11/02 07:15:27;;;;;;;0.80;0.70;;;;;;;;;;5019331;28;20029;-87
2023/11/02 07:17:53;;;;;;;0.82;0.70;;;;;;;;;;5036481;28;20026;-87
2023/11/02 07:20:26;;;;;;;0.75;0.65;;;;;;;;;;5017361;28;20033;-87
2023/11/02 07:22:52;;;;;;;0.60;0.60;;;;;;;;;;5017640;28;20459;-89
2023/11/02 07:25:18;;;;;;;0.95;0.80;;;;;;;;;;5016798;28;20040;-86
2023/11/02 07:27:47;;;;;;;1.13;0.90;;;;;;;;;;5035277;28;20022;-85
2023/11/02 07:30:14;;;;;;;0.82;0.75;;;;;;;;;;5017079;28;20032;-85
2023/11/02 07:32:41;;;;;;;0.77;0.70;;;;;;;;;;5017515;28;20017;-85
2023/11/02 07:35:09;;;;;;;0.85;0.80;;;;;;;;;;5034880;28;20092;-85
2023/11/02 07:37:35;;;;;;;0.82;0.70;;;;;;;;;;5017144;28;20117;-85
2023/11/02 07:40:05;;;;;;;0.88;0.80;;;;;;;;;;5006201;28;20026;-84
2023/11/02 07:42:34;;;;;;;1.15;0.88;;;;;;;;;;5013807;28;20026;-87
2023/11/02 07:45:00;;;;;;;0.60;0.60;;;;;;;;;;5026924;28;20029;-84
2023/11/02 07:47:26;;;;;;;1.00;0.80;;;;;;;;;;5017695;28;20030;-86
2023/11/02 07:49:53;;;;;;;0.80;0.70;;;;;;;;;;5017014;28;20025;-85
2023/11/02 07:52:19;;;;;;;0.85;0.70;;;;;;;;;;5017402;28;20017;-86
2023/11/02 07:54:45;;;;;;;0.95;0.73;;;;;;;;;;5033968;28;20394;-86
2023/11/02 07:57:11;;;;;;;0.82;0.70;;;;;;;;;;5034962;28;20494;-86
2023/11/02 07:59:38;;;;;;;1.00;0.80;;;;;;;;;;5035323;28;20030;-86
2023/11/02 08:02:05;;;;;;;1.08;0.98;;;;;;;;;;5022210;28;20048;-83
2023/11/02 08:04:31;;;;;;;0.70;0.70;;;;;;;;;;5021542;28;20461;-85
2023/11/02 08:06:57;;;;;;;0.85;0.77;;;;;;;;;;5016803;28;20109;-85
2023/11/02 08:09:23;;;;;;;0.85;0.82;;;;;;;;;;5034281;28;20030;-85
2023/11/02 08:11:49;;;;;;;0.90;0.70;;;;;;;;;;5016235;28;20026;-85
2023/11/02 08:14:17;;;;;;;0.68;0.68;;;;;;;;;;5033644;28;20493;-87
2023/11/02 08:16:43;;;;;;;0.70;0.70;;;;;;;;;;5017049;28;20492;-85
2023/11/02 08:19:09;;;;;;;0.82;0.68;;;;;;;;;;5016690;28;20022;-83
2023/11/02 08:21:35;;;;;;;0.98;0.85;;;;;;;;;;5018271;28;20465;-84
2023/11/02 08:24:02;;;;;;;0.90;0.80;;;;;;;;;;5008626;28;20041;-84
2023/11/02 08:26:28;;;;;;;0.50;0.50;;;;;;;;;;5034335;28;20459;-83
2023/11/02 08:28:55;;;;;;;0.70;0.70;;;;;;;;;;5016342;28;20026;-84
2023/11/02 08:31:24;;;;;;;2.85;0.93;;;;;;;;;;5016338;28;20021;-86
2023/11/02 08:33:50;;;;;;;0.75;0.70;;;;;;;;;;5016611;28;20033;-87
2023/11/02 08:36:18;;;;;;;0.80;0.63;;;;;;;;;;5016313;28;20072;-85
2023/11/02 08:38:45;;;;;;;0.70;0.70;;;;;;;;;;5016851;28;20482;-88
2023/11/02 08:41:21;;;;;;;0.77;0.70;;;;;;;;;;5016281;28;20474;-86
2023/11/02 08:43:47;;;;;;;1.75;0.70;;;;;;;;;;5016014;28;20030;-86
2023/11/02 08:46:23;;;;;;;0.60;0.60;;;;;;;;;;5016223;28;20031;-87
2023/11/02 08:48:50;;;;;;;0.70;0.60;;;;;;;;;;5016511;28;20143;-87
2023/11/02 08:51:17;;;;;;;1.17;0.75;;;;;;;;;;5016171;28;20025;-85
2023/11/02 08:53:44;;;;;;;0.82;0.82;;;;;;;;;;5017115;28;20057;-85
2023/11/02 08:56:10;;;;;;;1.08;0.73;;;;;;;;;;5015810;28;20036;-88
2023/11/02 08:58:46;;;;;;;0.88;0.85;;;;;;;;;;5034134;28;20022;-85
2023/11/02 09:01:17;;;;;;;1.05;0.90;;;;;;;;;;5016398;28;20389;-84
2023/11/02 09:03:43;;;;;;;0.70;0.70;;;;;;;;;;5016650;28;20041;-88
2023/11/02 09:06:10;;;;;;;1.13;1.02;;;;;;;;;;5016290;28;20545;-87
2023/11/02 09:08:37;;;;;;;0.85;0.75;;;;;;;;;;5016618;28;20455;-82
2023/11/02 09:11:04;;;;;;;0.73;0.73;;;;;;;;;;5015734;28;20026;-85
2023/11/02 09:13:30;;;;;;;0.80;0.80;;;;;;;;;;5033410;28;20390;-87
2023/11/02 09:15:57;;;;;;;1.08;0.98;;;;;;;;;;5015894;28;20065;-85
2023/11/02 09:18:23;;;;;;;0.60;0.60;;;;;;;;;;5015799;28;20095;-85
2023/11/02 09:20:49;;;;;;;0.60;0.60;;;;;;;;;;5015679;28;20026;-82
2023/11/02 09:23:16;;;;;;;2.28;0.73;;;;;;;;;;5033254;28;20115;-82
2023/11/02 09:25:42;;;;;;;0.70;0.63;;;;;;;;;;5015556;28;20030;-82
2023/11/02 09:28:08;;;;;;;0.98;0.90;;;;;;;;;;5040425;28;20029;-82
2023/11/02 09:30:35;;;;;;;0.70;0.70;;;;;;;;;;5055087;28;20082;-83
2023/11/02 09:33:01;;;;;;;0.63;0.60;;;;;;;;;;5076226;28;20489;-83
2023/11/02 09:35:27;;;;;;;0.70;0.70;;;;;;;;;;5070305;28;20045;-86
2023/11/02 09:37:53;;;;;;;0.60;0.60;;;;;;;;;;5046667;28;20045;-83
2023/11/02 09:40:20;;;;;;;0.98;0.88;;;;;;;;;;5055024;28;20079;-84
2023/11/02 09:43:02;;;;;;;0.60;0.60;;;;;;;;;;5055807;28;20032;-85
2023/11/02 09:45:29;;;;;;;0.70;0.70;;;;;;;;;;5033256;28;20478;-87
2023/11/02 09:48:02;;;;;;;0.80;0.80;;;;;;;;;;5037629;28;20028;-83
2023/11/02 09:50:28;;;;;;;0.50;0.50;;;;;;;;;;5053161;28;20139;-84
2023/11/02 09:52:55;;;;;;;0.50;0.50;;;;;;;;;;5054815;28;20056;-84
2023/11/02 09:55:22;;;;;;;0.50;0.50;;;;;;;;;;5055374;28;20041;-83
2023/11/02 09:57:49;;;;;;;0.85;0.82;;;;;;;;;;5060806;28;20028;-84
2023/11/02 10:00:17;;;;;;;0.52;0.52;;;;;;;;;;5058034;28;20115;-83
2023/11/02 10:02:46;;;;;;;0.88;0.82;;;;;;;;;;5055516;28;20450;-81
2023/11/02 10:05:12;;;;;;;0.98;0.93;;;;;;;;;;5058113;28;20476;-82
2023/11/02 10:07:38;;;;;;;1.88;0.88;;;;;;;;;;5057683;28;20017;-80
2023/11/02 10:10:05;;;;;;;0.65;0.65;;;;;;;;;;5058034;28;20020;-82
2023/11/02 10:12:37;;;;;;;0.70;0.70;;;;;;;;;;5057984;28;20024;-82
2023/11/02 10:15:04;;;;;;;0.50;0.50;;;;;;;;;;5070109;28;20024;-81
2023/11/02 10:17:37;;;;;;;2.13;0.90;;;;;;;;;;5100059;28;20013;-81
2023/11/02 10:20:14;;;;;;;0.60;0.60;;;;;;;;;;5080362;28;20048;-82
2023/11/02 10:22:41;;;;;;;0.73;0.73;;;;;;;;;;5062139;28;20016;-81
2023/11/02 10:25:08;;;;;;;2.30;1.02;;;;;;;;;;5058947;28;20043;-81
2023/11/02 10:27:36;;;;;;;0.55;0.55;;;;;;;;;;5055918;28;20052;-81
2023/11/02 10:30:03;;;;;;;2.45;0.73;;;;;;;;;;5057026;28;20020;-82
2023/11/02 10:32:29;;;;;;;0.70;0.70;;;;;;;;;;5058187;28;20103;-83
2023/11/02 10:34:57;;;;;;;0.68;0.68;;;;;;;;;;5059373;28;20499;-83
2023/11/02 10:37:33;;;;;;;1.13;0.90;;;;;;;;;;5039179;28;20045;-83
2023/11/02 10:39:59;;;;;;;0.50;0.50;;;;;;;;;;5037827;28;20032;-81
2023/11/02 10:42:26;;;;;;;0.50;0.50;;;;;;;;;;5037326;28;20021;-80
2023/11/02 10:44:52;;;;;;;0.60;0.60;;;;;;;;;;5052347;28;20025;-81
2023/11/02 10:47:19;;;;;;;0.50;0.50;;;;;;;;;;5055307;28;20098;-81
2023/11/02 10:49:46;;;;;;;0.60;0.60;;;;;;;;;;5037062;28;20036;-79
2023/11/02 10:52:13;;;;;;;0.50;0.50;;;;;;;;;;5037455;28;20482;-80
2023/11/02 10:54:49;;;;;;;0.50;0.50;;;;;;;;;;5037118;28;20482;-80
2023/11/02 10:57:18;;;;;;;0.77;0.77;;;;;;;;;;5026814;28;20029;-81
2023/11/02 10:59:45;;;;;;;0.50;0.50;;;;;;;;;;5066836;28;20424;-79
2023/11/02 11:02:12;;;;;;;0.50;0.50;;;;;;;;;;5034854;28;20025;-80
2023/11/02 11:04:42;;;;;;;0.50;0.50;;;;;;;;;;5037111;28;20033;-81
2023/11/02 11:07:09;;;;;;;0.50;0.50;;;;;;;;;;5035452;28;20112;-82
2023/11/02 11:09:36;;;;;;;0.60;0.60;;;;;;;;;;5027758;28;20017;-80
2023/11/02 11:12:03;;;;;;;0.85;0.85;;;;;;;;;;5052892;28;20025;-80
2023/11/02 11:14:29;;;;;;;0.60;0.60;;;;;;;;;;5040996;28;20033;-81
2023/11/02 11:16:56;;;;;;;0.70;0.70;;;;;;;;;;5036121;28;20473;-81
2023/11/02 11:19:23;;;;;;;0.50;0.50;;;;;;;;;;5048267;28;20482;-82
2023/11/02 11:21:51;;;;;;;0.40;0.40;;;;;;;;;;5032649;28;20035;-81
2023/11/02 11:24:17;;;;;;;0.40;0.40;;;;;;;;;;5033826;28;20037;-81
2023/11/02 11:26:47;;;;;;;0.60;0.60;;;;;;;;;;5034205;28;20048;-81
2023/11/02 11:29:35;;;;;;;0.40;0.40;;;;;;;;;;4992641;28;20042;-81
2023/11/02 11:32:03;;;;;;;0.90;0.63;;;;;;;;;;4992557;28;20039;-80
2023/11/02 11:34:51;;;;;;;0.45;0.45;;;;;;;;;;4992625;28;20043;-80
2023/11/02 11:37:40;;;;;;;0.80;0.63;;;;;;;;;;4965584;28;20133;-79
2023/11/02 11:40:08;;;;;;;0.50;0.50;;;;;;;;;;4982269;28;20072;-80
2023/11/02 11:42:53;;;;;;;0.40;0.40;;;;;;;;;;4995966;28;20141;-80
2023/11/02 11:45:26;;;;;;;0.30;0.30;;;;;;;;;;5011517;28;20113;-79
2023/11/02 11:47:56;;;;;;;0.38;0.38;;;;;;;;;;5010448;28;20352;-80
2023/11/02 11:50:31;;;;;;;0.40;0.40;;;;;;;;;;4972432;28;20085;-80
2023/11/02 11:53:16;;;;;;;0.60;0.60;;;;;;;;;;4991611;28;20028;-78
2023/11/02 11:55:43;;;;;;;0.65;0.40;;;;;;;;;;4987877;28;20042;-79
2023/11/02 11:58:10;;;;;;;0.40;0.40;;;;;;;;;;4991437;28;20424;-79
2023/11/02 12:00:37;;;;;;;0.30;0.30;;;;;;;;;;5018232;28;20040;-79
2023/11/02 12:03:06;;;;;;;0.40;0.40;;;;;;;;;;5015766;28;20117;-79
2023/11/02 12:05:44;;;;;;;0.57;0.57;;;;;;;;;;5032163;28;20032;-79
2023/11/02 12:08:13;;;;;;;0.40;0.40;;;;;;;;;;5033269;28;20091;-78
2023/11/02 12:10:45;;;;;;;0.30;0.30;;;;;;;;;;5033175;28;20056;-80
2023/11/02 12:13:14;;;;;;;0.40;0.40;;;;;;;;;;5016128;28;20348;-78
2023/11/02 12:16:07;;;;;;;0.50;0.50;;;;;;;;;;5030933;28;20021;-79
2023/11/02 12:18:34;;;;;;;0.60;0.60;;;;;;;;;;5011787;28;20064;-79
2023/11/02 12:21:04;;;;;;;0.40;0.40;;;;;;;;;;5030780;28;20092;-80
2023/11/02 12:23:32;;;;;;;0.45;0.45;;;;;;;;;;5031100;28;20025;-80
2023/11/02 12:26:00;;;;;;;0.47;0.47;;;;;;;;;;5030970;28;20037;-78
2023/11/02 12:28:26;;;;;;;0.35;0.35;;;;;;;;;;5031620;28;20029;-79
2023/11/02 12:30:52;;;;;;;0.40;0.40;;;;;;;;;;5016474;28;20414;-80
2023/11/02 12:33:21;;;;;;;0.40;0.40;;;;;;;;;;5030561;28;20421;-78
2023/11/02 12:35:54;;;;;;;0.40;0.40;;;;;;;;;;5030523;28;20455;-80
2023/11/02 12:38:36;;;;;;;0.75;0.52;;;;;;;;;;5027625;28;20017;-79
2023/11/02 12:41:04;;;;;;;3.00;0.68;;;;;;;;;;5033785;28;20053;-79
2023/11/02 12:43:33;;;;;;;0.38;0.38;;;;;;;;;;5044116;28;20039;-79
2023/11/02 12:46:09;;;;;;;0.40;0.40;;;;;;;;;;5025380;28;20123;-80
2023/11/02 12:48:40;;;;;;;0.52;0.52;;;;;;;;;;5036195;28;20030;-80
2023/11/02 12:51:24;;;;;;;0.60;0.60;;;;;;;;;;5018687;28;20116;-78
2023/11/02 12:53:52;;;;;;;0.40;0.40;;;;;;;;;;5043747;28;20025;-77
2023/11/02 12:56:22;;;;;;;0.50;0.50;;;;;;;;;;5037237;28;20474;-77
2023/11/02 12:58:57;;;;;;;0.40;0.40;;;;;;;;;;5034005;28;20467;-77
2023/11/02 13:01:24;;;;;;;0.50;0.50;;;;;;;;;;5032255;28;20037;-78
2023/11/02 13:04:03;;;;;;;0.70;0.70;;;;;;;;;;5028364;28;20470;-79
2023/11/02 13:06:29;;;;;;;0.30;0.30;;;;;;;;;;5024366;28;20164;-84
2023/11/02 13:09:17;;;;;;;0.40;0.40;;;;;;;;;;5035197;28;20025;-81
2023/11/02 13:11:44;;;;;;;0.60;0.60;;;;;;;;;;5027405;28;20017;-81
2023/11/02 13:14:11;;;;;;;0.43;0.43;;;;;;;;;;5026962;28;20037;-80
2023/11/02 13:16:37;;;;;;;0.43;0.43;;;;;;;;;;5051800;28;20510;-79
2023/11/02 13:19:03;;;;;;;0.40;0.40;;;;;;;;;;5038690;28;20018;-79
2023/11/02 13:21:30;;;;;;;0.40;0.40;;;;;;;;;;5048922;28;20421;-79
2023/11/02 13:23:57;;;;;;;0.50;0.50;;;;;;;;;;5028085;28;20037;-79
2023/11/02 13:26:23;;;;;;;0.40;0.40;;;;;;;;;;5041438;28;20030;-78
2023/11/02 13:28:49;;;;;;;0.40;0.40;;;;;;;;;;5019509;28;20084;-78
2023/11/02 13:31:16;;;;;;;0.50;0.50;;;;;;;;;;5050292;28;20017;-79
2023/11/02 13:33:43;;;;;;;0.40;0.40;;;;;;;;;;5026495;28;20029;-79
2023/11/02 13:36:10;;;;;;;0.40;0.40;;;;;;;;;;5031704;28;20049;-80
2023/11/02 13:38:42;;;;;;;0.30;0.30;;;;;;;;;;5034678;28;20029;-80
2023/11/02 13:41:08;;;;;;;;;;;;;;;;;;5034916;28;20463;-79
2023/11/02 13:43:34;;;;;;;0.50;0.50;;;;;;;;;;5017784;28;19971;-78
2023/11/02 13:46:01;;;;;;;0.40;0.40;;;;;;;;;;5035867;28;20048;-79
2023/11/02 13:48:27;;;;;;;0.40;0.40;;;;;;;;;;5034672;28;20068;-78
2023/11/02 13:50:53;;;;;;;0.40;0.40;;;;;;;;;;5034146;28;20018;-78
2023/11/02 13:53:22;;;;;;;0.40;0.40;;;;;;;;;;5034937;28;20028;-79
2023/11/02 13:55:49;;;;;;;0.40;0.40;;;;;;;;;;5052909;28;20025;-79
2023/11/02 13:58:16;;;;;;;0.30;0.30;;;;;;;;;;5058511;28;20025;-79
2023/11/02 14:00:42;;;;;;;0.30;0.30;;;;;;;;;;5036395;28;20454;-79
2023/11/02 14:03:08;;;;;;;0.38;0.38;;;;;;;;;;5036232;28;20026;-80
2023/11/02 14:05:38;;;;;;;0.47;0.47;;;;;;;;;;5035968;28;20447;-81
2023/11/02 14:08:05;;;;;;;0.60;0.60;;;;;;;;;;5034389;28;20538;-79
2023/11/02 14:10:32;;;;;;;0.35;0.35;;;;;;;;;;5017440;28;20128;-81
2023/11/02 14:12:59;;;;;;;0.40;0.40;;;;;;;;;;5020221;28;20048;-80
2023/11/02 14:15:25;;;;;;;0.40;0.40;;;;;;;;;;5034200;28;20041;-79
2023/11/02 14:17:51;;;;;;;0.50;0.50;;;;;;;;;;5034354;28;20466;-79
2023/11/02 14:20:19;;;;;;;0.50;0.50;;;;;;;;;;5017372;28;20116;-81
2023/11/02 14:22:45;;;;;;;0.40;0.40;;;;;;;;;;5034528;28;20036;-81
2023/11/02 14:25:11;;;;;;;0.50;0.50;;;;;;;;;;5033530;28;20152;-80
2023/11/02 14:27:37;;;;;;;0.40;0.40;;;;;;;;;;5033868;28;20029;-79
2023/11/02 14:30:04;;;;;;;0.40;0.40;;;;;;;;;;5033795;28;20152;-80
2023/11/02 14:32:30;;;;;;;0.40;0.40;;;;;;;;;;5031772;28;20025;-80
2023/11/02 14:34:57;;;;;;;0.55;0.55;;;;;;;;;;5032528;28;20040;-79
2023/11/02 14:37:23;;;;;;;0.65;0.65;;;;;;;;;;5051498;28;20045;-80
2023/11/02 14:39:49;;;;;;;0.45;0.45;;;;;;;;;;5037215;28;20116;-81
2023/11/02 14:42:16;;;;;;;0.50;0.50;;;;;;;;;;5037139;28;20048;-81
2023/11/02 14:44:43;;;;;;;1.48;0.60;;;;;;;;;;5030902;28;20394;-82
2023/11/02 14:47:11;;;;;;;0.50;0.50;;;;;;;;;;5035104;28;20036;-82
2023/11/02 14:49:38;;;;;;;0.50;0.50;;;;;;;;;;5033717;28;20037;-82
2023/11/02 14:52:06;;;;;;;0.50;0.50;;;;;;;;;;5023391;28;20453;-81
2023/11/02 14:54:39;;;;;;;0.73;0.73;;;;;;;;;;5033423;28;20029;-82
2023/11/02 14:57:06;;;;;;;0.50;0.50;;;;;;;;;;5053168;28;20028;-81
2023/11/02 14:59:32;;;;;;;0.60;0.60;;;;;;;;;;5046271;28;20026;-81
2023/11/02 15:02:00;;;;;;;0.60;0.60;;;;;;;;;;5035145;28;20022;-81
2023/11/02 15:04:26;;;;;;;0.75;0.65;;;;;;;;;;5032235;28;20552;-81
2023/11/02 15:06:54;;;;;;;0.88;0.88;;;;;;;;;;5036917;28;20044;-81
2023/11/02 15:09:20;;;;;;;1.30;0.82;;;;;;;;;;5036317;28;20104;-80
2023/11/02 15:11:47;;;;;;;0.60;0.60;;;;;;;;;;5054265;28;20466;-80
2023/11/02 15:14:14;;;;;;;0.50;0.50;;;;;;;;;;5020644;28;20033;-84
2023/11/02 15:16:42;;;;;;;0.50;0.50;;;;;;;;;;5032705;28;20633;-80
2023/11/02 15:19:08;;;;;;;0.50;0.50;;;;;;;;;;5036723;28;20349;-79
2023/11/02 15:21:37;;;;;;;0.50;0.50;;;;;;;;;;5036403;28;20025;-81
2023/11/02 15:24:03;;;;;;;0.50;0.50;;;;;;;;;;5035516;28;20448;-81
2023/11/02 15:26:29;;;;;;;0.63;0.63;;;;;;;;;;5036703;28;20044;-84
2023/11/02 15:28:56;;;;;;;0.50;0.50;;;;;;;;;;5036152;28;20025;-82
2023/11/02 15:31:23;;;;;;;0.65;0.65;;;;;;;;;;5054244;28;20029;-82
2023/11/02 15:33:50;;;;;;;0.60;0.60;;;;;;;;;;5036510;28;20493;-80
2023/11/02 15:36:16;;;;;;;0.40;0.40;;;;;;;;;;5042700;28;20114;-80
2023/11/02 15:38:44;;;;;;;0.50;0.50;;;;;;;;;;5054478;28;20059;-80
2023/11/02 15:41:19;;;;;;;0.75;0.75;;;;;;;;;;5054293;28;20017;-81
2023/11/02 15:43:47;;;;;;;0.57;0.57;;;;;;;;;;5052236;28;20025;-80
2023/11/02 15:46:13;;;;;;;0.65;0.65;;;;;;;;;;5052736;28;20025;-81
2023/11/02 15:48:39;;;;;;;0.68;0.68;;;;;;;;;;5053976;28;20103;-80
2023/11/02 15:51:09;;;;;;;0.50;0.50;;;;;;;;;;5033835;28;20037;-80
2023/11/02 15:53:36;;;;;;;0.65;0.65;;;;;;;;;;5016809;28;20041;-80
2023/11/02 15:56:02;;;;;;;0.70;0.70;;;;;;;;;;5033747;28;20049;-81
2023/11/02 15:58:28;;;;;;;0.47;0.47;;;;;;;;;;5032793;28;20355;-81
2023/11/02 16:00:54;;;;;;;0.60;0.60;;;;;;;;;;5033963;28;20112;-80
2023/11/02 16:03:21;;;;;;;1.25;0.90;;;;;;;;;;5032074;28;20025;-80
2023/11/02 16:05:47;;;;;;;1.25;0.73;;;;;;;;;;5048603;28;20028;-80
2023/11/02 16:08:14;;;;;;;0.88;0.75;;;;;;;;;;5052973;28;20057;-81
2023/11/02 16:10:40;;;;;;;0.70;0.70;;;;;;;;;;5052075;28;20108;-81
2023/11/02 16:13:06;;;;;;;1.52;1.23;;;;;;;;;;5052500;28;20116;-81
2023/11/02 16:15:32;;;;;;;0.82;0.82;;;;;;;;;;5048490;28;20018;-80
2023/11/02 16:17:58;;;;;;;0.73;0.73;;;;;;;;;;5015613;28;20018;-80
2023/11/02 16:20:24;;;;;;;0.98;0.77;;;;;;;;;;5033850;28;20100;-80
2023/11/02 16:22:51;;;;;;;1.73;1.05;;;;;;;;;;5016215;28;20017;-81
2023/11/02 16:25:19;;;;;;;1.30;1.17;;;;;;;;;;5031960;28;20041;-81
2023/11/02 16:27:45;;;;;;;0.65;0.65;;;;;;;;;;5015823;28;20379;-80
2023/11/02 16:30:12;;;;;;;0.70;0.55;;;;;;;;;;5032545;28;20025;-82
2023/11/02 16:32:40;;;;;;;0.80;0.80;;;;;;;;;;5031575;28;20553;-82
2023/11/02 16:35:06;;;;;;;1.13;1.00;;;;;;;;;;5015715;28;20430;-81
2023/11/02 16:37:32;;;;;;;2.80;0.80;;;;;;;;;;5055750;28;20409;-83
2023/11/02 16:39:58;;;;;;;0.60;0.60;;;;;;;;;;5055211;28;20021;-81
2023/11/02 16:42:24;;;;;;;1.20;1.10;;;;;;;;;;5055535;28;20028;-81
2023/11/02 16:44:50;;;;;;;0.80;0.80;;;;;;;;;;5055394;28;20025;-81
2023/11/02 16:47:16;;;;;;;0.70;0.70;;;;;;;;;;5055247;28;20035;-81
2023/11/02 16:49:43;;;;;;;0.80;0.80;;;;;;;;;;5055385;28;20116;-81
2023/11/02 16:52:09;;;;;;;1.35;0.88;;;;;;;;;;5048367;28;20021;-81